sensor_id;sensor_type;location;lat;lon;timestamp;P1;P2;P0
55549;PMS7003;41397;49.972;18.944;2023-04-30T00:00:39;15;15;12
55549;PMS7003;41397;49.972;18.944;2023-04-30T00:03:45;16;16;12
55549;PMS7003;41397;49.972;18.944;2023-04-30T00:06:47;19;19;10
55549;PMS7003;41397;49.972;18.944;2023-04-30T00:09:48;14;14;9
55549;PMS7003;41397;49.972;18.944;2023-04-30T00:12:51;13;11;9
55549;PMS7003;41397;49.972;18.944;2023-04-30T00:15:52;12;12;9
55549;PMS7003;41397;49.972;18.944;2023-04-30T00:18:54;15;13;10
55549;PMS7003;41397;49.972;18.944;2023-04-30T00:21:55;16;16;14
55549;PMS7003;41397;49.972;18.944;2023-04-30T00:24:56;20;19;9
55549;PMS7003;41397;49.972;18.944;2023-04-30T00:27:58;18;18;13
55549;PMS7003;41397;49.972;18.944;2023-04-30T00:30:59;19;19;13
55549;PMS7003;41397;49.972;18.944;2023-04-30T00:34:00;19;19;13
55549;PMS7003;41397;49.972;18.944;2023-04-30T00:37:03;19;17;14
55549;PMS7003;41397;49.972;18.944;2023-04-30T00:40:05;23;22;15
55549;PMS7003;41397;49.972;18.944;2023-04-30T00:43:07;23;22;14
55549;PMS7003;41397;49.972;18.944;2023-04-30T00:46:09;22;22;13
55549;PMS7003;41397;49.972;18.944;2023-04-30T00:49:12;33;29;16
55549;PMS7003;41397;49.972;18.944;2023-04-30T00:52:13;22;22;15
55549;PMS7003;41397;49.972;18.944;2023-04-30T00:55:15;25;24;17
55549;PMS7003;41397;49.972;18.944;2023-04-30T00:58:18;28;26;16
55549;PMS7003;41397;49.972;18.944;2023-04-30T01:01:20;25;22;15
55549;PMS7003;41397;49.972;18.944;2023-04-30T01:04:21;22;21;15
55549;PMS7003;41397;49.972;18.944;2023-04-30T01:07:24;27;26;18
55549;PMS7003;41397;49.972;18.944;2023-04-30T01:10:29;34;29;18
55549;PMS7003;41397;49.972;18.944;2023-04-30T01:20:09;31;28;18
55549;PMS7003;41397;49.972;18.944;2023-04-30T01:23:23;36;32;21
55549;PMS7003;41397;49.972;18.944;2023-04-30T01:29:36;28;24;15
55549;PMS7003;41397;49.972;18.944;2023-04-30T01:32:43;37;31;17
55549;PMS7003;41397;49.972;18.944;2023-04-30T01:42:18;31;27;16
55549;PMS7003;41397;49.972;18.944;2023-04-30T01:55:13;27;25;17
55549;PMS7003;41397;49.972;18.944;2023-04-30T01:58:27;24;24;15
55549;PMS7003;41397;49.972;18.944;2023-04-30T02:01:31;27;25;16
55549;PMS7003;41397;49.972;18.944;2023-04-30T02:04:34;18;18;13
55549;PMS7003;41397;49.972;18.944;2023-04-30T02:07:39;32;27;18
55549;PMS7003;41397;49.972;18.944;2023-04-30T02:10:46;25;25;16
55549;PMS7003;41397;49.972;18.944;2023-04-30T02:13:47;15;15;11
55549;PMS7003;41397;49.972;18.944;2023-04-30T02:16:49;17;17;14
55549;PMS7003;41397;49.972;18.944;2023-04-30T02:19:50;12;12;9
55549;PMS7003;41397;49.972;18.944;2023-04-30T02:22:52;14;14;12
55549;PMS7003;41397;49.972;18.944;2023-04-30T02:25:53;16;16;11
55549;PMS7003;41397;49.972;18.944;2023-04-30T02:28:54;19;19;13
55549;PMS7003;41397;49.972;18.944;2023-04-30T02:31:57;18;18;13
55549;PMS7003;41397;49.972;18.944;2023-04-30T02:34:59;22;16;12
55549;PMS7003;41397;49.972;18.944;2023-04-30T02:38:01;22;22;16
55549;PMS7003;41397;49.972;18.944;2023-04-30T02:41:02;11;11;8
55549;PMS7003;41397;49.972;18.944;2023-04-30T02:44:07;14;14;11
55549;PMS7003;41397;49.972;18.944;2023-04-30T02:47:18;17;17;12
55549;PMS7003;41397;49.972;18.944;2023-04-30T02:50:19;12;12;7
55549;PMS7003;41397;49.972;18.944;2023-04-30T02:53:21;12;12;10
55549;PMS7003;41397;49.972;18.944;2023-04-30T02:56:22;10;10;9
55549;PMS7003;41397;49.972;18.944;2023-04-30T02:59:24;13;13;10
55549;PMS7003;41397;49.972;18.944;2023-04-30T03:02:26;8;8;6
55549;PMS7003;41397;49.972;18.944;2023-04-30T03:05:28;9;9;7
55549;PMS7003;41397;49.972;18.944;2023-04-30T03:08:30;6;6;5
55549;PMS7003;41397;49.972;18.944;2023-04-30T03:11:31;5;5;5
55549;PMS7003;41397;49.972;18.944;2023-04-30T03:14:36;10;10;7
55549;PMS7003;41397;49.972;18.944;2023-04-30T03:17:38;17;10;9
55549;PMS7003;41397;49.972;18.944;2023-04-30T03:20:39;5;5;5
55549;PMS7003;41397;49.972;18.944;2023-04-30T03:23:42;8;8;7
55549;PMS7003;41397;49.972;18.944;2023-04-30T03:26:43;11;11;9
55549;PMS7003;41397;49.972;18.944;2023-04-30T03:29:45;9;9;8
55549;PMS7003;41397;49.972;18.944;2023-04-30T03:32:46;14;14;12
55549;PMS7003;41397;49.972;18.944;2023-04-30T03:35:48;15;15;10
55549;PMS7003;41397;49.972;18.944;2023-04-30T03:38:51;17;17;14
55549;PMS7003;41397;49.972;18.944;2023-04-30T03:41:52;15;15;10
55549;PMS7003;41397;49.972;18.944;2023-04-30T03:44:54;19;19;13
55549;PMS7003;41397;49.972;18.944;2023-04-30T03:47:55;11;11;9
55549;PMS7003;41397;49.972;18.944;2023-04-30T03:50:56;22;21;14
55549;PMS7003;41397;49.972;18.944;2023-04-30T03:53:58;17;17;11
55549;PMS7003;41397;49.972;18.944;2023-04-30T03:56:59;17;17;13
55549;PMS7003;41397;49.972;18.944;2023-04-30T04:00:05;9;9;6
55549;PMS7003;41397;49.972;18.944;2023-04-30T04:03:07;18;18;10
55549;PMS7003;41397;49.972;18.944;2023-04-30T04:06:08;17;17;11
55549;PMS7003;41397;49.972;18.944;2023-04-30T04:09:10;15;15;10
55549;PMS7003;41397;49.972;18.944;2023-04-30T04:12:11;14;14;10
55549;PMS7003;41397;49.972;18.944;2023-04-30T04:15:12;20;20;11
55549;PMS7003;41397;49.972;18.944;2023-04-30T04:18:14;18;18;14
55549;PMS7003;41397;49.972;18.944;2023-04-30T04:21:17;17;17;12
55549;PMS7003;41397;49.972;18.944;2023-04-30T04:24:18;17;17;12
55549;PMS7003;41397;49.972;18.944;2023-04-30T04:27:20;13;13;11
55549;PMS7003;41397;49.972;18.944;2023-04-30T04:30:21;19;19;14
55549;PMS7003;41397;49.972;18.944;2023-04-30T04:33:23;15;15;11
55549;PMS7003;41397;49.972;18.944;2023-04-30T04:36:27;17;17;15
55549;PMS7003;41397;49.972;18.944;2023-04-30T04:39:30;16;16;11
55549;PMS7003;41397;49.972;18.944;2023-04-30T04:42:31;14;14;11
55549;PMS7003;41397;49.972;18.944;2023-04-30T04:45:33;25;25;14
55549;PMS7003;41397;49.972;18.944;2023-04-30T04:48:38;19;19;11
55549;PMS7003;41397;49.972;18.944;2023-04-30T04:51:39;16;16;11
55549;PMS7003;41397;49.972;18.944;2023-04-30T04:54:41;22;22;15
55549;PMS7003;41397;49.972;18.944;2023-04-30T04:57:42;20;20;15
55549;PMS7003;41397;49.972;18.944;2023-04-30T05:00:44;15;13;8
55549;PMS7003;41397;49.972;18.944;2023-04-30T05:03:47;16;16;12
55549;PMS7003;41397;49.972;18.944;2023-04-30T05:06:50;19;19;15
55549;PMS7003;41397;49.972;18.944;2023-04-30T05:09:51;16;16;12
55549;PMS7003;41397;49.972;18.944;2023-04-30T05:12:52;17;17;13
55549;PMS7003;41397;49.972;18.944;2023-04-30T05:15:54;18;18;15
55549;PMS7003;41397;49.972;18.944;2023-04-30T05:18:56;17;17;14
55549;PMS7003;41397;49.972;18.944;2023-04-30T05:21:57;16;16;12
55549;PMS7003;41397;49.972;18.944;2023-04-30T05:25:01;23;23;13
55549;PMS7003;41397;49.972;18.944;2023-04-30T05:28:02;18;18;13
55549;PMS7003;41397;49.972;18.944;2023-04-30T05:31:04;15;15;12
55549;PMS7003;41397;49.972;18.944;2023-04-30T05:34:06;14;14;13
55549;PMS7003;41397;49.972;18.944;2023-04-30T05:37:07;16;16;13
55549;PMS7003;41397;49.972;18.944;2023-04-30T05:40:09;14;14;12
55549;PMS7003;41397;49.972;18.944;2023-04-30T05:43:11;15;15;9
55549;PMS7003;41397;49.972;18.944;2023-04-30T05:46:13;17;17;10
55549;PMS7003;41397;49.972;18.944;2023-04-30T05:49:14;19;19;15
55549;PMS7003;41397;49.972;18.944;2023-04-30T05:52:15;16;16;12
55549;PMS7003;41397;49.972;18.944;2023-04-30T05:55:17;23;23;15
55549;PMS7003;41397;49.972;18.944;2023-04-30T05:58:18;20;20;14
55549;PMS7003;41397;49.972;18.944;2023-04-30T06:01:20;15;15;12
55549;PMS7003;41397;49.972;18.944;2023-04-30T06:04:23;24;24;16
55549;PMS7003;41397;49.972;18.944;2023-04-30T06:07:25;17;17;13
55549;PMS7003;41397;49.972;18.944;2023-04-30T06:10:26;16;16;9
55549;PMS7003;41397;49.972;18.944;2023-04-30T06:13:27;16;16;14
55549;PMS7003;41397;49.972;18.944;2023-04-30T06:16:29;21;21;14
55549;PMS7003;41397;49.972;18.944;2023-04-30T06:19:31;15;15;12
55549;PMS7003;41397;49.972;18.944;2023-04-30T06:22:32;23;23;14
55549;PMS7003;41397;49.972;18.944;2023-04-30T06:25:34;18;18;15
55549;PMS7003;41397;49.972;18.944;2023-04-30T06:32:05;18;18;14
55549;PMS7003;41397;49.972;18.944;2023-04-30T06:35:07;20;19;14
55549;PMS7003;41397;49.972;18.944;2023-04-30T06:38:14;17;17;14
55549;PMS7003;41397;49.972;18.944;2023-04-30T06:41:17;20;17;13
55549;PMS7003;41397;49.972;18.944;2023-04-30T06:44:19;15;15;9
55549;PMS7003;41397;49.972;18.944;2023-04-30T06:47:20;18;18;13
55549;PMS7003;41397;49.972;18.944;2023-04-30T06:50:22;15;15;12
55549;PMS7003;41397;49.972;18.944;2023-04-30T06:53:23;16;16;13
55549;PMS7003;41397;49.972;18.944;2023-04-30T06:56:25;15;15;11
55549;PMS7003;41397;49.972;18.944;2023-04-30T06:59:28;14;14;13
55549;PMS7003;41397;49.972;18.944;2023-04-30T07:02:30;16;16;11
55549;PMS7003;41397;49.972;18.944;2023-04-30T07:05:32;17;17;12
55549;PMS7003;41397;49.972;18.944;2023-04-30T07:08:33;16;16;11
55549;PMS7003;41397;49.972;18.944;2023-04-30T07:11:35;15;15;12
55549;PMS7003;41397;49.972;18.944;2023-04-30T07:14:37;18;18;12
55549;PMS7003;41397;49.972;18.944;2023-04-30T07:17:39;17;17;14
55549;PMS7003;41397;49.972;18.944;2023-04-30T07:20:43;17;17;10
55549;PMS7003;41397;49.972;18.944;2023-04-30T07:27:25;16;16;12
55549;PMS7003;41397;49.972;18.944;2023-04-30T07:30:28;10;10;8
55549;PMS7003;41397;49.972;18.944;2023-04-30T07:33:29;14;14;11
55549;PMS7003;41397;49.972;18.944;2023-04-30T07:36:31;15;15;8
55549;PMS7003;41397;49.972;18.944;2023-04-30T07:39:32;16;15;11
55549;PMS7003;41397;49.972;18.944;2023-04-30T07:42:34;11;11;11
55549;PMS7003;41397;49.972;18.944;2023-04-30T07:45:36;16;16;12
55549;PMS7003;41397;49.972;18.944;2023-04-30T07:48:38;12;12;10
55549;PMS7003;41397;49.972;18.944;2023-04-30T07:51:39;9;9;9
55549;PMS7003;41397;49.972;18.944;2023-04-30T07:54:42;11;11;8
55549;PMS7003;41397;49.972;18.944;2023-04-30T07:57:43;10;10;7
55549;PMS7003;41397;49.972;18.944;2023-04-30T08:00:45;9;9;7
55549;PMS7003;41397;49.972;18.944;2023-04-30T08:03:47;9;9;8
55549;PMS7003;41397;49.972;18.944;2023-04-30T08:06:50;4;4;4
55549;PMS7003;41397;49.972;18.944;2023-04-30T08:09:51;7;7;5
55549;PMS7003;41397;49.972;18.944;2023-04-30T08:12:52;10;10;7
55549;PMS7003;41397;49.972;18.944;2023-04-30T08:15:54;7;7;5
55549;PMS7003;41397;49.972;18.944;2023-04-30T08:18:56;10;10;8
55549;PMS7003;41397;49.972;18.944;2023-04-30T08:21:57;6;6;6
55549;PMS7003;41397;49.972;18.944;2023-04-30T08:25:00;11;11;9
55549;PMS7003;41397;49.972;18.944;2023-04-30T08:28:03;11;11;8
55549;PMS7003;41397;49.972;18.944;2023-04-30T08:31:06;9;9;6
55549;PMS7003;41397;49.972;18.944;2023-04-30T08:34:08;10;10;7
55549;PMS7003;41397;49.972;18.944;2023-04-30T08:37:10;8;8;7
55549;PMS7003;41397;49.972;18.944;2023-04-30T08:40:11;13;13;9
55549;PMS7003;41397;49.972;18.944;2023-04-30T08:43:16;11;11;7
55549;PMS7003;41397;49.972;18.944;2023-04-30T08:46:20;10;10;9
55549;PMS7003;41397;49.972;18.944;2023-04-30T08:49:28;9;9;6
55549;PMS7003;41397;49.972;18.944;2023-04-30T08:52:33;6;6;5
55549;PMS7003;41397;49.972;18.944;2023-04-30T08:55:38;9;9;6
55549;PMS7003;41397;49.972;18.944;2023-04-30T08:58:41;7;7;5
55549;PMS7003;41397;49.972;18.944;2023-04-30T09:01:49;7;7;6
55549;PMS7003;41397;49.972;18.944;2023-04-30T09:04:55;10;10;7
55549;PMS7003;41397;49.972;18.944;2023-04-30T09:07:56;10;10;8
55549;PMS7003;41397;49.972;18.944;2023-04-30T09:10:58;12;12;9
55549;PMS7003;41397;49.972;18.944;2023-04-30T09:17:42;9;9;8
55549;PMS7003;41397;49.972;18.944;2023-04-30T09:24:21;8;8;7
55549;PMS7003;41397;49.972;18.944;2023-04-30T09:27:30;6;6;6
55549;PMS7003;41397;49.972;18.944;2023-04-30T09:30:33;7;7;5
55549;PMS7003;41397;49.972;18.944;2023-04-30T09:36:50;10;10;9
55549;PMS7003;41397;49.972;18.944;2023-04-30T09:39:55;6;6;6
55549;PMS7003;41397;49.972;18.944;2023-04-30T09:42:57;4;4;4
55549;PMS7003;41397;49.972;18.944;2023-04-30T09:46:02;5;5;4
55549;PMS7003;41397;49.972;18.944;2023-04-30T09:49:10;8;8;5
55549;PMS7003;41397;49.972;18.944;2023-04-30T09:52:11;7;7;5
55549;PMS7003;41397;49.972;18.944;2023-04-30T09:55:12;6;6;5
55549;PMS7003;41397;49.972;18.944;2023-04-30T09:58:14;6;6;5
55549;PMS7003;41397;49.972;18.944;2023-04-30T10:01:18;7;7;5
55549;PMS7003;41397;49.972;18.944;2023-04-30T10:08:09;3;3;3
55549;PMS7003;41397;49.972;18.944;2023-04-30T10:11:19;6;6;5
55549;PMS7003;41397;49.972;18.944;2023-04-30T10:14:23;8;8;7
55549;PMS7003;41397;49.972;18.944;2023-04-30T10:17:33;4;4;4
55549;PMS7003;41397;49.972;18.944;2023-04-30T10:20:40;4;4;4
55549;PMS7003;41397;49.972;18.944;2023-04-30T10:23:43;3;3;2
55549;PMS7003;41397;49.972;18.944;2023-04-30T10:26:48;2;2;2
55549;PMS7003;41397;49.972;18.944;2023-04-30T10:29:50;4;4;4
55549;PMS7003;41397;49.972;18.944;2023-04-30T10:36:12;3;3;3
55549;PMS7003;41397;49.972;18.944;2023-04-30T10:39:21;6;6;5
55549;PMS7003;41397;49.972;18.944;2023-04-30T10:42:28;4;4;3
55549;PMS7003;41397;49.972;18.944;2023-04-30T10:45:35;7;7;6
55549;PMS7003;41397;49.972;18.944;2023-04-30T10:48:38;4;4;3
55549;PMS7003;41397;49.972;18.944;2023-04-30T10:51:46;6;6;4
55549;PMS7003;41397;49.972;18.944;2023-04-30T10:54:58;7;7;6
55549;PMS7003;41397;49.972;18.944;2023-04-30T10:58:21;6;6;5
55549;PMS7003;41397;49.972;18.944;2023-04-30T11:01:39;3;3;2
55549;PMS7003;41397;49.972;18.944;2023-04-30T11:07:59;7;7;5
55549;PMS7003;41397;49.972;18.944;2023-04-30T11:11:01;3;3;3
55549;PMS7003;41397;49.972;18.944;2023-04-30T11:14:04;4;4;3
55549;PMS7003;41397;49.972;18.944;2023-04-30T11:17:06;4;4;3
55549;PMS7003;41397;49.972;18.944;2023-04-30T11:20:11;8;8;5
55549;PMS7003;41397;49.972;18.944;2023-04-30T11:23:14;7;7;4
55549;PMS7003;41397;49.972;18.944;2023-04-30T11:26:20;3;3;2
55549;PMS7003;41397;49.972;18.944;2023-04-30T11:29:23;4;4;3
55549;PMS7003;41397;49.972;18.944;2023-04-30T11:32:25;2;2;1
55549;PMS7003;41397;49.972;18.944;2023-04-30T11:35:33;8;8;6
55549;PMS7003;41397;49.972;18.944;2023-04-30T11:38:36;2;2;2
55549;PMS7003;41397;49.972;18.944;2023-04-30T11:41:41;5;5;5
55549;PMS7003;41397;49.972;18.944;2023-04-30T11:44:43;4;4;2
55549;PMS7003;41397;49.972;18.944;2023-04-30T11:47:46;5;5;3
55549;PMS7003;41397;49.972;18.944;2023-04-30T11:50:50;3;3;2
55549;PMS7003;41397;49.972;18.944;2023-04-30T11:54:02;5;5;5
55549;PMS7003;41397;49.972;18.944;2023-04-30T11:57:08;4;4;3
55549;PMS7003;41397;49.972;18.944;2023-04-30T12:00:12;3;3;2
55549;PMS7003;41397;49.972;18.944;2023-04-30T12:03:19;4;4;4
55549;PMS7003;41397;49.972;18.944;2023-04-30T12:06:21;6;6;5
55549;PMS7003;41397;49.972;18.944;2023-04-30T12:09:24;4;4;3
55549;PMS7003;41397;49.972;18.944;2023-04-30T12:12:26;2;2;2
55549;PMS7003;41397;49.972;18.944;2023-04-30T12:15:31;2;2;2
55549;PMS7003;41397;49.972;18.944;2023-04-30T12:18:33;5;5;4
55549;PMS7003;41397;49.972;18.944;2023-04-30T12:25:22;3;3;2
55549;PMS7003;41397;49.972;18.944;2023-04-30T12:28:22;4;4;3
55549;PMS7003;41397;49.972;18.944;2023-04-30T12:31:27;3;3;3
55549;PMS7003;41397;49.972;18.944;2023-04-30T12:34:33;3;3;3
55549;PMS7003;41397;49.972;18.944;2023-04-30T12:47:49;3;3;2
55549;PMS7003;41397;49.972;18.944;2023-04-30T12:51:00;4;4;3
55549;PMS7003;41397;49.972;18.944;2023-04-30T12:54:06;1;1;1
55549;PMS7003;41397;49.972;18.944;2023-04-30T12:57:08;2;2;1
55549;PMS7003;41397;49.972;18.944;2023-04-30T13:00:11;5;5;4
55549;PMS7003;41397;49.972;18.944;2023-04-30T13:03:15;5;5;5
55549;PMS7003;41397;49.972;18.944;2023-04-30T13:06:20;5;5;4
55549;PMS7003;41397;49.972;18.944;2023-04-30T13:09:23;4;4;2
55549;PMS7003;41397;49.972;18.944;2023-04-30T13:12:24;2;2;2
55549;PMS7003;41397;49.972;18.944;2023-04-30T13:15:25;2;2;2
55549;PMS7003;41397;49.972;18.944;2023-04-30T13:18:27;4;4;3
55549;PMS7003;41397;49.972;18.944;2023-04-30T13:21:28;1;1;1
55549;PMS7003;41397;49.972;18.944;2023-04-30T13:24:30;2;2;2
55549;PMS7003;41397;49.972;18.944;2023-04-30T13:27:32;4;4;4
55549;PMS7003;41397;49.972;18.944;2023-04-30T13:30:33;3;3;3
55549;PMS7003;41397;49.972;18.944;2023-04-30T13:33:35;2;2;2
55549;PMS7003;41397;49.972;18.944;2023-04-30T13:36:36;4;4;4
55549;PMS7003;41397;49.972;18.944;2023-04-30T13:39:38;1;1;1
55549;PMS7003;41397;49.972;18.944;2023-04-30T13:42:40;2;2;2
55549;PMS7003;41397;49.972;18.944;2023-04-30T13:45:42;1;1;1
55549;PMS7003;41397;49.972;18.944;2023-04-30T13:48:44;0;0;0
55549;PMS7003;41397;49.972;18.944;2023-04-30T13:51:51;5;5;3
55549;PMS7003;41397;49.972;18.944;2023-04-30T13:54:53;4;4;1
55549;PMS7003;41397;49.972;18.944;2023-04-30T13:57:55;3;3;3
55549;PMS7003;41397;49.972;18.944;2023-04-30T14:00:57;1;1;1
55549;PMS7003;41397;49.972;18.944;2023-04-30T14:03:59;2;2;2
55549;PMS7003;41397;49.972;18.944;2023-04-30T14:07:01;3;3;2
55549;PMS7003;41397;49.972;18.944;2023-04-30T14:10:04;2;2;1
55549;PMS7003;41397;49.972;18.944;2023-04-30T14:13:06;4;4;2
55549;PMS7003;41397;49.972;18.944;2023-04-30T14:16:07;1;1;1
55549;PMS7003;41397;49.972;18.944;2023-04-30T14:19:09;4;4;3
55549;PMS7003;41397;49.972;18.944;2023-04-30T14:22:10;2;2;2
55549;PMS7003;41397;49.972;18.944;2023-04-30T14:25:13;2;2;2
55549;PMS7003;41397;49.972;18.944;2023-04-30T14:28:14;4;4;4
55549;PMS7003;41397;49.972;18.944;2023-04-30T14:31:16;3;3;2
55549;PMS7003;41397;49.972;18.944;2023-04-30T14:34:18;5;5;4
55549;PMS7003;41397;49.972;18.944;2023-04-30T14:37:19;3;3;3
55549;PMS7003;41397;49.972;18.944;2023-04-30T14:40:21;4;4;3
55549;PMS7003;41397;49.972;18.944;2023-04-30T14:43:22;2;2;2
55549;PMS7003;41397;49.972;18.944;2023-04-30T14:46:24;3;3;3
55549;PMS7003;41397;49.972;18.944;2023-04-30T14:49:25;4;4;3
55549;PMS7003;41397;49.972;18.944;2023-04-30T14:52:27;5;5;4
55549;PMS7003;41397;49.972;18.944;2023-04-30T14:55:29;2;2;1
55549;PMS7003;41397;49.972;18.944;2023-04-30T14:58:31;3;3;2
55549;PMS7003;41397;49.972;18.944;2023-04-30T15:01:32;2;2;1
55549;PMS7003;41397;49.972;18.944;2023-04-30T15:04:34;0;0;0
55549;PMS7003;41397;49.972;18.944;2023-04-30T15:07:35;4;4;3
55549;PMS7003;41397;49.972;18.944;2023-04-30T15:10:36;3;3;3
55549;PMS7003;41397;49.972;18.944;2023-04-30T15:13:38;2;2;2
55549;PMS7003;41397;49.972;18.944;2023-04-30T15:16:39;2;2;2
55549;PMS7003;41397;49.972;18.944;2023-04-30T15:19:41;5;5;4
55549;PMS7003;41397;49.972;18.944;2023-04-30T15:22:44;1;1;1
55549;PMS7003;41397;49.972;18.944;2023-04-30T15:25:45;2;2;2
55549;PMS7003;41397;49.972;18.944;2023-04-30T15:28:47;2;2;1
55549;PMS7003;41397;49.972;18.944;2023-04-30T15:31:48;2;2;2
55549;PMS7003;41397;49.972;18.944;2023-04-30T15:34:54;3;3;3
55549;PMS7003;41397;49.972;18.944;2023-04-30T15:37:55;1;1;0
55549;PMS7003;41397;49.972;18.944;2023-04-30T15:40:56;3;3;2
55549;PMS7003;41397;49.972;18.944;2023-04-30T15:43:58;4;4;4
55549;PMS7003;41397;49.972;18.944;2023-04-30T15:47:00;3;3;3
55549;PMS7003;41397;49.972;18.944;2023-04-30T15:50:01;0;0;0
55549;PMS7003;41397;49.972;18.944;2023-04-30T15:53:03;3;3;3
55549;PMS7003;41397;49.972;18.944;2023-04-30T15:56:04;0;0;0
55549;PMS7003;41397;49.972;18.944;2023-04-30T15:59:06;3;3;3
55549;PMS7003;41397;49.972;18.944;2023-04-30T16:02:08;4;4;3
55549;PMS7003;41397;49.972;18.944;2023-04-30T16:05:09;4;4;3
55549;PMS7003;41397;49.972;18.944;2023-04-30T16:08:11;2;2;2
55549;PMS7003;41397;49.972;18.944;2023-04-30T16:11:14;3;3;2
55549;PMS7003;41397;49.972;18.944;2023-04-30T16:14:16;2;2;2
55549;PMS7003;41397;49.972;18.944;2023-04-30T16:17:18;3;3;1
55549;PMS7003;41397;49.972;18.944;2023-04-30T16:20:20;3;3;2
55549;PMS7003;41397;49.972;18.944;2023-04-30T16:23:23;2;2;2
55549;PMS7003;41397;49.972;18.944;2023-04-30T16:26:24;0;0;0
55549;PMS7003;41397;49.972;18.944;2023-04-30T16:29:26;3;3;2
55549;PMS7003;41397;49.972;18.944;2023-04-30T16:32:27;5;5;4
55549;PMS7003;41397;49.972;18.944;2023-04-30T16:35:29;3;3;3
55549;PMS7003;41397;49.972;18.944;2023-04-30T16:38:31;2;2;1
55549;PMS7003;41397;49.972;18.944;2023-04-30T16:42:59;5;5;5
55549;PMS7003;41397;49.972;18.944;2023-04-30T16:46:01;2;2;2
55549;PMS7003;41397;49.972;18.944;2023-04-30T16:49:02;3;3;3
55549;PMS7003;41397;49.972;18.944;2023-04-30T16:52:07;6;6;5
55549;PMS7003;41397;49.972;18.944;2023-04-30T16:55:09;5;5;4
55549;PMS7003;41397;49.972;18.944;2023-04-30T16:58:11;5;5;3
55549;PMS7003;41397;49.972;18.944;2023-04-30T17:01:12;6;6;3
55549;PMS7003;41397;49.972;18.944;2023-04-30T17:04:15;5;5;5
55549;PMS7003;41397;49.972;18.944;2023-04-30T17:07:17;1;1;1
55549;PMS7003;41397;49.972;18.944;2023-04-30T17:10:19;4;4;3
55549;PMS7003;41397;49.972;18.944;2023-04-30T17:13:21;6;6;4
55549;PMS7003;41397;49.972;18.944;2023-04-30T17:16:23;4;4;4
55549;PMS7003;41397;49.972;18.944;2023-04-30T17:19:24;5;5;5
55549;PMS7003;41397;49.972;18.944;2023-04-30T17:22:27;4;4;3
55549;PMS7003;41397;49.972;18.944;2023-04-30T17:25:29;3;3;3
55549;PMS7003;41397;49.972;18.944;2023-04-30T17:28:42;6;6;4
55549;PMS7003;41397;49.972;18.944;2023-04-30T17:31:49;6;6;5
55549;PMS7003;41397;49.972;18.944;2023-04-30T17:34:51;4;4;4
55549;PMS7003;41397;49.972;18.944;2023-04-30T17:37:52;5;5;5
55549;PMS7003;41397;49.972;18.944;2023-04-30T17:40:55;6;6;5
55549;PMS7003;41397;49.972;18.944;2023-04-30T17:43:57;7;7;6
55549;PMS7003;41397;49.972;18.944;2023-04-30T17:47:00;9;8;6
55549;PMS7003;41397;49.972;18.944;2023-04-30T17:50:02;7;7;5
55549;PMS7003;41397;49.972;18.944;2023-04-30T17:53:08;7;7;4
55549;PMS7003;41397;49.972;18.944;2023-04-30T17:56:10;5;5;4
55549;PMS7003;41397;49.972;18.944;2023-04-30T17:59:13;10;10;9
55549;PMS7003;41397;49.972;18.944;2023-04-30T18:02:21;6;6;6
55549;PMS7003;41397;49.972;18.944;2023-04-30T18:05:23;13;13;10
55549;PMS7003;41397;49.972;18.944;2023-04-30T18:08:30;10;10;7
55549;PMS7003;41397;49.972;18.944;2023-04-30T18:11:35;7;7;5
55549;PMS7003;41397;49.972;18.944;2023-04-30T18:14:37;9;9;8
55549;PMS7003;41397;49.972;18.944;2023-04-30T18:17:38;9;9;7
55549;PMS7003;41397;49.972;18.944;2023-04-30T18:20:41;7;7;5
55549;PMS7003;41397;49.972;18.944;2023-04-30T18:23:43;9;9;8
55549;PMS7003;41397;49.972;18.944;2023-04-30T18:26:45;4;4;3
55549;PMS7003;41397;49.972;18.944;2023-04-30T18:29:46;14;14;10
55549;PMS7003;41397;49.972;18.944;2023-04-30T18:32:49;11;11;10
55549;PMS7003;41397;49.972;18.944;2023-04-30T18:46:06;14;14;11
55549;PMS7003;41397;49.972;18.944;2023-04-30T18:49:07;10;9;8
55549;PMS7003;41397;49.972;18.944;2023-04-30T18:52:09;14;13;11
55549;PMS7003;41397;49.972;18.944;2023-04-30T18:55:10;12;12;9
55549;PMS7003;41397;49.972;18.944;2023-04-30T18:58:14;15;15;10
55549;PMS7003;41397;49.972;18.944;2023-04-30T19:01:16;13;13;8
55549;PMS7003;41397;49.972;18.944;2023-04-30T19:04:20;15;15;12
55549;PMS7003;41397;49.972;18.944;2023-04-30T19:07:22;15;14;10
55549;PMS7003;41397;49.972;18.944;2023-04-30T19:10:23;15;15;12
55549;PMS7003;41397;49.972;18.944;2023-04-30T19:13:25;13;13;10
55549;PMS7003;41397;49.972;18.944;2023-04-30T19:16:26;13;13;11
55549;PMS7003;41397;49.972;18.944;2023-04-30T19:19:28;19;19;16
55549;PMS7003;41397;49.972;18.944;2023-04-30T19:22:29;19;19;14
55549;PMS7003;41397;49.972;18.944;2023-04-30T19:25:30;26;26;19
55549;PMS7003;41397;49.972;18.944;2023-04-30T19:28:32;29;28;21
55549;PMS7003;41397;49.972;18.944;2023-04-30T19:31:34;25;25;18
55549;PMS7003;41397;49.972;18.944;2023-04-30T19:34:36;32;30;21
55549;PMS7003;41397;49.972;18.944;2023-04-30T19:37:37;27;26;19
55549;PMS7003;41397;49.972;18.944;2023-04-30T19:40:41;27;27;20
55549;PMS7003;41397;49.972;18.944;2023-04-30T19:43:46;21;21;17
55549;PMS7003;41397;49.972;18.944;2023-04-30T19:46:47;29;28;21
55549;PMS7003;41397;49.972;18.944;2023-04-30T19:49:49;34;32;21
55549;PMS7003;41397;49.972;18.944;2023-04-30T19:52:52;28;28;20
55549;PMS7003;41397;49.972;18.944;2023-04-30T19:55:54;26;26;20
55549;PMS7003;41397;49.972;18.944;2023-04-30T19:58:59;29;29;20
55549;PMS7003;41397;49.972;18.944;2023-04-30T20:02:01;36;32;22
55549;PMS7003;41397;49.972;18.944;2023-04-30T20:05:05;27;26;18
55549;PMS7003;41397;49.972;18.944;2023-04-30T20:08:15;26;26;18
55549;PMS7003;41397;49.972;18.944;2023-04-30T20:11:17;28;27;19
55549;PMS7003;41397;49.972;18.944;2023-04-30T20:14:20;28;26;18
55549;PMS7003;41397;49.972;18.944;2023-04-30T20:17:23;28;26;21
55549;PMS7003;41397;49.972;18.944;2023-04-30T20:20:24;37;31;19
55549;PMS7003;41397;49.972;18.944;2023-04-30T20:23:28;33;31;22
55549;PMS7003;41397;49.972;18.944;2023-04-30T20:26:32;26;26;19
55549;PMS7003;41397;49.972;18.944;2023-04-30T20:29:34;29;29;19
55549;PMS7003;41397;49.972;18.944;2023-04-30T20:32:36;40;35;21
55549;PMS7003;41397;49.972;18.944;2023-04-30T20:35:42;38;32;22
55549;PMS7003;41397;49.972;18.944;2023-04-30T20:38:47;27;27;18
55549;PMS7003;41397;49.972;18.944;2023-04-30T20:41:49;37;33;22
55549;PMS7003;41397;49.972;18.944;2023-04-30T20:44:52;37;34;23
55549;PMS7003;41397;49.972;18.944;2023-04-30T20:47:54;29;28;19
55549;PMS7003;41397;49.972;18.944;2023-04-30T20:50:56;34;32;22
55549;PMS7003;41397;49.972;18.944;2023-04-30T20:53:57;30;29;22
55549;PMS7003;41397;49.972;18.944;2023-04-30T20:57:01;30;27;20
55549;PMS7003;41397;49.972;18.944;2023-04-30T21:00:03;27;27;17
55549;PMS7003;41397;49.972;18.944;2023-04-30T21:03:06;36;32;21